sensor_id;sensor_type;location;lat;lon;timestamp;pressure;altitude;pressure_sealevel;temperature;humidity
39891;BME280;25564;53.312;9.790;2023-06-26T00:02:07;100675.41;;;20.72;71.62
39891;BME280;25564;53.312;9.790;2023-06-26T00:04:38;100689.50;;;20.77;71.52
39891;BME280;25564;53.312;9.790;2023-06-26T00:07:10;100680.13;;;20.83;71.68
39891;BME280;25564;53.312;9.790;2023-06-26T00:09:42;100672.63;;;20.88;71.50
39891;BME280;25564;53.312;9.790;2023-06-26T00:12:13;100675.03;;;20.93;71.33
39891;BME280;25564;53.312;9.790;2023-06-26T00:14:44;100675.63;;;20.98;71.06
39891;BME280;25564;53.312;9.790;2023-06-26T00:17:16;100669.94;;;21.02;71.27
39891;BME280;25564;53.312;9.790;2023-06-26T00:19:49;100666.28;;;21.03;70.95
39891;BME280;25564;53.312;9.790;2023-06-26T00:22:21;100659.16;;;21.02;71.01
39891;BME280;25564;53.312;9.790;2023-06-26T00:24:52;100664.28;;;21.07;70.89
39891;BME280;25564;53.312;9.790;2023-06-26T00:27:24;100667.75;;;21.09;70.90
39891;BME280;25564;53.312;9.790;2023-06-26T00:29:55;100657.81;;;21.09;70.92
39891;BME280;25564;53.312;9.790;2023-06-26T00:32:26;100658.31;;;21.16;70.22
39891;BME280;25564;53.312;9.790;2023-06-26T00:34:58;100657.25;;;21.18;70.16
39891;BME280;25564;53.312;9.790;2023-06-26T00:37:29;100659.06;;;21.18;70.13
39891;BME280;25564;53.312;9.790;2023-06-26T00:40:01;100651.84;;;21.18;69.84
39891;BME280;25564;53.312;9.790;2023-06-26T00:42:32;100654.63;;;21.17;70.49
39891;BME280;25564;53.312;9.790;2023-06-26T00:45:04;100655.59;;;21.16;70.24
39891;BME280;25564;53.312;9.790;2023-06-26T00:47:36;100649.44;;;21.14;70.33
39891;BME280;25564;53.312;9.790;2023-06-26T00:50:08;100639.69;;;21.11;70.13
39891;BME280;25564;53.312;9.790;2023-06-26T00:52:39;100634.59;;;21.07;70.23
39891;BME280;25564;53.312;9.790;2023-06-26T00:55:11;100648.28;;;21.18;70.02
39891;BME280;25564;53.312;9.790;2023-06-26T00:57:43;100635.16;;;21.12;69.84
39891;BME280;25564;53.312;9.790;2023-06-26T01:00:17;100640.09;;;21.19;69.59
39891;BME280;25564;53.312;9.790;2023-06-26T01:02:48;100642.00;;;21.17;69.96
39891;BME280;25564;53.312;9.790;2023-06-26T01:05:20;100632.97;;;21.18;70.11
39891;BME280;25564;53.312;9.790;2023-06-26T01:07:52;100632.84;;;21.20;69.72
39891;BME280;25564;53.312;9.790;2023-06-26T01:10:24;100638.25;;;21.20;69.62
39891;BME280;25564;53.312;9.790;2023-06-26T01:12:57;100628.44;;;21.19;69.83
39891;BME280;25564;53.312;9.790;2023-06-26T01:15:28;100631.13;;;21.19;69.89
39891;BME280;25564;53.312;9.790;2023-06-26T01:17:59;100627.47;;;21.20;69.78
39891;BME280;25564;53.312;9.790;2023-06-26T01:20:39;100623.78;;;21.21;69.31
39891;BME280;25564;53.312;9.790;2023-06-26T01:23:17;100613.00;;;21.21;69.50
39891;BME280;25564;53.312;9.790;2023-06-26T01:26:13;100602.41;;;21.18;69.47
39891;BME280;25564;53.312;9.790;2023-06-26T01:28:47;100600.75;;;21.15;69.25
39891;BME280;25564;53.312;9.790;2023-06-26T01:31:20;100602.41;;;21.18;69.66
39891;BME280;25564;53.312;9.790;2023-06-26T01:33:52;100595.38;;;21.15;69.27
39891;BME280;25564;53.312;9.790;2023-06-26T01:36:23;100583.13;;;21.10;69.31
39891;BME280;25564;53.312;9.790;2023-06-26T01:38:55;100578.97;;;21.04;69.03
39891;BME280;25564;53.312;9.790;2023-06-26T01:41:26;100603.38;;;21.17;69.58
39891;BME280;25564;53.312;9.790;2023-06-26T01:44:03;100595.94;;;21.20;68.81
39891;BME280;25564;53.312;9.790;2023-06-26T01:46:40;100600.31;;;21.23;69.37
39891;BME280;25564;53.312;9.790;2023-06-26T01:50:06;100585.84;;;21.24;69.01
39891;BME280;25564;53.312;9.790;2023-06-26T01:55:35;100586.00;;;21.21;68.67
39891;BME280;25564;53.312;9.790;2023-06-26T01:58:09;100583.41;;;21.19;68.60
39891;BME280;25564;53.312;9.790;2023-06-26T02:00:41;100583.50;;;21.18;68.65
39891;BME280;25564;53.312;9.790;2023-06-26T02:03:13;100582.72;;;21.16;68.68
39891;BME280;25564;53.312;9.790;2023-06-26T02:05:44;100580.22;;;21.13;69.25
39891;BME280;25564;53.312;9.790;2023-06-26T02:08:15;100578.41;;;21.13;68.86
39891;BME280;25564;53.312;9.790;2023-06-26T02:10:47;100557.28;;;21.06;68.76
39891;BME280;25564;53.312;9.790;2023-06-26T02:13:18;100558.94;;;21.08;68.85
39891;BME280;25564;53.312;9.790;2023-06-26T02:15:50;100563.56;;;21.06;68.67
39891;BME280;25564;53.312;9.790;2023-06-26T02:18:21;100562.59;;;21.07;69.13
39891;BME280;25564;53.312;9.790;2023-06-26T02:20:53;100557.69;;;21.00;68.85
39891;BME280;25564;53.312;9.790;2023-06-26T02:23:25;100571.66;;;21.06;69.25
39891;BME280;25564;53.312;9.790;2023-06-26T02:25:56;100556.53;;;21.04;68.97
39891;BME280;25564;53.312;9.790;2023-06-26T02:28:27;100529.16;;;20.81;69.18
39891;BME280;25564;53.312;9.790;2023-06-26T02:30:59;100557.09;;;20.95;69.12
39891;BME280;25564;53.312;9.790;2023-06-26T02:33:30;100538.22;;;20.80;69.44
39891;BME280;25564;53.312;9.790;2023-06-26T02:36:01;100545.16;;;20.84;69.25
39891;BME280;25564;53.312;9.790;2023-06-26T02:38:33;100539.78;;;20.70;69.56
39891;BME280;25564;53.312;9.790;2023-06-26T02:41:04;100543.75;;;20.65;69.33
39891;BME280;25564;53.312;9.790;2023-06-26T02:43:35;100557.13;;;20.66;69.46
39891;BME280;25564;53.312;9.790;2023-06-26T02:46:07;100535.63;;;20.50;70.07
39891;BME280;25564;53.312;9.790;2023-06-26T02:48:38;100536.69;;;20.48;69.69
39891;BME280;25564;53.312;9.790;2023-06-26T02:51:10;100545.75;;;20.47;70.09
39891;BME280;25564;53.312;9.790;2023-06-26T02:53:41;100522.75;;;20.25;70.54
39891;BME280;25564;53.312;9.790;2023-06-26T02:56:12;100551.84;;;20.35;70.42
39891;BME280;25564;53.312;9.790;2023-06-26T02:58:44;100531.22;;;20.19;70.61
39891;BME280;25564;53.312;9.790;2023-06-26T03:01:15;100515.59;;;20.10;70.33
39891;BME280;25564;53.312;9.790;2023-06-26T03:03:48;100535.81;;;20.17;70.82
39891;BME280;25564;53.312;9.790;2023-06-26T03:06:19;100519.53;;;20.05;70.57
39891;BME280;25564;53.312;9.790;2023-06-26T03:08:53;100528.19;;;20.10;70.75
39891;BME280;25564;53.312;9.790;2023-06-26T03:11:24;100519.88;;;19.99;71.25
39891;BME280;25564;53.312;9.790;2023-06-26T03:13:56;100522.50;;;20.00;71.42
39891;BME280;25564;53.312;9.790;2023-06-26T03:16:27;100532.31;;;20.01;71.70
39891;BME280;25564;53.312;9.790;2023-06-26T03:18:58;100501.75;;;19.86;71.39
39891;BME280;25564;53.312;9.790;2023-06-26T03:21:30;100525.47;;;19.96;71.95
39891;BME280;25564;53.312;9.790;2023-06-26T03:24:01;100531.63;;;19.98;72.02
39891;BME280;25564;53.312;9.790;2023-06-26T03:26:33;100523.63;;;19.96;72.03
39891;BME280;25564;53.312;9.790;2023-06-26T03:29:04;100507.84;;;19.90;71.73
39891;BME280;25564;53.312;9.790;2023-06-26T03:31:35;100510.94;;;19.98;71.95
39891;BME280;25564;53.312;9.790;2023-06-26T03:34:07;100510.66;;;20.03;72.27
39891;BME280;25564;53.312;9.790;2023-06-26T03:36:38;100513.84;;;20.09;72.03
39891;BME280;25564;53.312;9.790;2023-06-26T03:39:09;100483.63;;;20.04;72.37
39891;BME280;25564;53.312;9.790;2023-06-26T03:41:41;100485.69;;;20.15;71.99
39891;BME280;25564;53.312;9.790;2023-06-26T03:44:12;100506.13;;;20.33;71.81
39891;BME280;25564;53.312;9.790;2023-06-26T03:46:44;100513.56;;;20.44;72.05
39891;BME280;25564;53.312;9.790;2023-06-26T03:49:15;100497.31;;;20.45;72.06
39891;BME280;25564;53.312;9.790;2023-06-26T03:51:46;100478.72;;;20.41;71.80
39891;BME280;25564;53.312;9.790;2023-06-26T03:54:18;100493.84;;;20.58;71.56
39891;BME280;25564;53.312;9.790;2023-06-26T03:56:49;100488.94;;;20.64;71.76
39891;BME280;25564;53.312;9.790;2023-06-26T03:59:21;100484.91;;;20.71;71.31
39891;BME280;25564;53.312;9.790;2023-06-26T04:01:52;100507.19;;;20.87;71.65
39891;BME280;25564;53.312;9.790;2023-06-26T04:04:24;100477.81;;;20.83;71.79
39891;BME280;25564;53.312;9.790;2023-06-26T04:06:55;100488.50;;;20.99;71.79
39891;BME280;25564;53.312;9.790;2023-06-26T04:09:28;100490.31;;;21.12;71.57
39891;BME280;25564;53.312;9.790;2023-06-26T04:11:59;100476.63;;;21.15;71.90
39891;BME280;25564;53.312;9.790;2023-06-26T04:14:31;100479.13;;;21.18;71.39
39891;BME280;25564;53.312;9.790;2023-06-26T04:17:02;100486.16;;;21.35;71.61
39891;BME280;25564;53.312;9.790;2023-06-26T04:19:34;100487.06;;;21.48;71.28
39891;BME280;25564;53.312;9.790;2023-06-26T04:22:07;100454.31;;;21.40;71.16
39891;BME280;25564;53.312;9.790;2023-06-26T04:24:38;100455.44;;;21.50;70.54
39891;BME280;25564;53.312;9.790;2023-06-26T04:27:10;100473.75;;;21.72;70.77
39891;BME280;25564;53.312;9.790;2023-06-26T04:29:42;100452.16;;;21.72;70.22
39891;BME280;25564;53.312;9.790;2023-06-26T04:32:13;100466.00;;;21.93;70.08
39891;BME280;25564;53.312;9.790;2023-06-26T04:34:44;100458.66;;;21.95;69.60
39891;BME280;25564;53.312;9.790;2023-06-26T04:37:16;100470.50;;;22.19;69.38
39891;BME280;25564;53.312;9.790;2023-06-26T04:39:48;100472.34;;;22.32;69.14
39891;BME280;25564;53.312;9.790;2023-06-26T04:42:19;100463.47;;;22.42;68.96
39891;BME280;25564;53.312;9.790;2023-06-26T04:44:52;100462.06;;;22.49;68.51
39891;BME280;25564;53.312;9.790;2023-06-26T04:47:24;100470.19;;;22.62;68.43
39891;BME280;25564;53.312;9.790;2023-06-26T04:49:55;100456.31;;;22.67;67.93
39891;BME280;25564;53.312;9.790;2023-06-26T04:52:27;100449.81;;;22.69;67.74
39891;BME280;25564;53.312;9.790;2023-06-26T04:54:58;100435.97;;;22.74;67.02
39891;BME280;25564;53.312;9.790;2023-06-26T04:57:30;100437.56;;;22.89;67.08
39891;BME280;25564;53.312;9.790;2023-06-26T05:00:02;100436.13;;;22.96;67.21
39891;BME280;25564;53.312;9.790;2023-06-26T05:02:34;100441.28;;;23.12;66.33
39891;BME280;25564;53.312;9.790;2023-06-26T05:05:06;100441.56;;;23.20;66.14
39891;BME280;25564;53.312;9.790;2023-06-26T05:07:38;100424.75;;;23.28;66.29
39891;BME280;25564;53.312;9.790;2023-06-26T05:10:09;100426.66;;;23.38;65.64
39891;BME280;25564;53.312;9.790;2023-06-26T05:12:41;100415.38;;;23.44;65.75
39891;BME280;25564;53.312;9.790;2023-06-26T05:15:12;100426.81;;;23.61;65.01
39891;BME280;25564;53.312;9.790;2023-06-26T05:17:43;100435.59;;;23.75;65.15
39891;BME280;25564;53.312;9.790;2023-06-26T05:20:15;100423.44;;;23.81;64.84
39891;BME280;25564;53.312;9.790;2023-06-26T05:22:46;100431.09;;;23.98;64.43
39891;BME280;25564;53.312;9.790;2023-06-26T05:25:18;100429.75;;;24.04;63.88
39891;BME280;25564;53.312;9.790;2023-06-26T05:27:49;100417.81;;;24.18;64.24
39891;BME280;25564;53.312;9.790;2023-06-26T05:30:22;100420.44;;;24.30;63.50
39891;BME280;25564;53.312;9.790;2023-06-26T05:32:56;100400.34;;;24.33;63.76
39891;BME280;25564;53.312;9.790;2023-06-26T05:35:30;100404.69;;;24.47;63.62
39891;BME280;25564;53.312;9.790;2023-06-26T05:38:02;100401.97;;;24.58;63.52
39891;BME280;25564;53.312;9.790;2023-06-26T05:40:34;100406.28;;;24.71;62.87
39891;BME280;25564;53.312;9.790;2023-06-26T05:43:06;100417.97;;;24.83;63.15
39891;BME280;25564;53.312;9.790;2023-06-26T05:45:38;100404.78;;;24.90;62.44
39891;BME280;25564;53.312;9.790;2023-06-26T05:48:09;100417.94;;;25.05;62.07
39891;BME280;25564;53.312;9.790;2023-06-26T05:50:42;100389.13;;;25.25;61.97
39891;BME280;25564;53.312;9.790;2023-06-26T05:53:14;100409.75;;;26.74;59.64
39891;BME280;25564;53.312;9.790;2023-06-26T05:55:46;100415.03;;;28.68;55.12
39891;BME280;25564;53.312;9.790;2023-06-26T05:58:20;100403.31;;;30.27;52.20
39891;BME280;25564;53.312;9.790;2023-06-26T06:00:52;100412.53;;;31.45;49.61
39891;BME280;25564;53.312;9.790;2023-06-26T06:03:23;100395.72;;;32.37;47.49
39891;BME280;25564;53.312;9.790;2023-06-26T06:05:55;100410.34;;;33.24;46.04
39891;BME280;25564;53.312;9.790;2023-06-26T06:08:27;100406.22;;;33.97;44.99
39891;BME280;25564;53.312;9.790;2023-06-26T06:10:59;100392.53;;;34.56;43.51
39891;BME280;25564;53.312;9.790;2023-06-26T06:13:31;100395.47;;;34.69;42.55
39891;BME280;25564;53.312;9.790;2023-06-26T06:16:02;100389.72;;;35.15;41.80
39891;BME280;25564;53.312;9.790;2023-06-26T06:18:34;100402.91;;;35.55;40.98
39891;BME280;25564;53.312;9.790;2023-06-26T06:21:05;100399.25;;;35.91;40.09
39891;BME280;25564;53.312;9.790;2023-06-26T06:23:37;100413.94;;;36.19;38.96
39891;BME280;25564;53.312;9.790;2023-06-26T06:26:09;100395.75;;;36.03;39.15
39891;BME280;25564;53.312;9.790;2023-06-26T06:28:40;100400.69;;;36.08;39.25
39891;BME280;25564;53.312;9.790;2023-06-26T06:31:12;100401.22;;;36.53;38.13
39891;BME280;25564;53.312;9.790;2023-06-26T06:33:43;100403.81;;;36.95;37.60
39891;BME280;25564;53.312;9.790;2023-06-26T06:36:15;100387.94;;;37.17;36.70
39891;BME280;25564;53.312;9.790;2023-06-26T06:38:46;100376.06;;;37.23;36.47
39891;BME280;25564;53.312;9.790;2023-06-26T06:41:17;100394.41;;;37.44;36.31
39891;BME280;25564;53.312;9.790;2023-06-26T06:43:49;100377.59;;;37.65;36.02
39891;BME280;25564;53.312;9.790;2023-06-26T06:46:20;100384.88;;;37.80;35.30
39891;BME280;25564;53.312;9.790;2023-06-26T06:48:52;100370.59;;;37.70;35.49
39891;BME280;25564;53.312;9.790;2023-06-26T06:51:23;100357.78;;;37.36;35.55
39891;BME280;25564;53.312;9.790;2023-06-26T06:53:55;100350.78;;;36.85;36.29
39891;BME280;25564;53.312;9.790;2023-06-26T06:56:26;100362.16;;;36.28;37.56
39891;BME280;25564;53.312;9.790;2023-06-26T06:58:57;100365.50;;;35.95;38.08
39891;BME280;25564;53.312;9.790;2023-06-26T07:01:29;100344.69;;;35.50;38.85
39891;BME280;25564;53.312;9.790;2023-06-26T07:04:00;100368.19;;;35.25;38.87
39891;BME280;25564;53.312;9.790;2023-06-26T07:06:32;100379.63;;;34.86;39.73
39891;BME280;25564;53.312;9.790;2023-06-26T07:09:03;100377.91;;;34.40;39.88
39891;BME280;25564;53.312;9.790;2023-06-26T07:11:35;100378.09;;;33.87;39.76
39891;BME280;25564;53.312;9.790;2023-06-26T07:14:06;100383.22;;;33.44;41.16
39891;BME280;25564;53.312;9.790;2023-06-26T07:16:37;100376.34;;;33.17;41.61
39891;BME280;25564;53.312;9.790;2023-06-26T07:19:09;100385.41;;;32.95;41.82
39891;BME280;25564;53.312;9.790;2023-06-26T07:21:40;100360.94;;;32.69;41.84
39891;BME280;25564;53.312;9.790;2023-06-26T07:24:12;100358.28;;;32.44;42.06
39891;BME280;25564;53.312;9.790;2023-06-26T07:26:43;100342.41;;;32.15;42.59
39891;BME280;25564;53.312;9.790;2023-06-26T07:29:18;100364.03;;;32.18;42.99
39891;BME280;25564;53.312;9.790;2023-06-26T07:31:50;100360.97;;;31.97;42.74
39891;BME280;25564;53.312;9.790;2023-06-26T07:34:21;100354.09;;;31.93;42.64
39891;BME280;25564;53.312;9.790;2023-06-26T07:36:53;100339.53;;;31.93;42.23
39891;BME280;25564;53.312;9.790;2023-06-26T07:39:24;100339.50;;;32.01;42.14
39891;BME280;25564;53.312;9.790;2023-06-26T07:41:56;100329.06;;;31.88;42.50
39891;BME280;25564;53.312;9.790;2023-06-26T07:44:30;100349.97;;;32.13;42.49
39891;BME280;25564;53.312;9.790;2023-06-26T07:47:02;100333.94;;;32.33;42.14
39891;BME280;25564;53.312;9.790;2023-06-26T07:49:33;100350.16;;;32.59;42.22
39891;BME280;25564;53.312;9.790;2023-06-26T07:52:05;100354.78;;;32.59;42.36
39891;BME280;25564;53.312;9.790;2023-06-26T07:54:37;100353.44;;;32.55;41.85
39891;BME280;25564;53.312;9.790;2023-06-26T07:57:08;100340.53;;;32.63;41.53
39891;BME280;25564;53.312;9.790;2023-06-26T07:59:40;100353.19;;;32.72;41.79
39891;BME280;25564;53.312;9.790;2023-06-26T08:02:11;100331.91;;;32.66;41.47
39891;BME280;25564;53.312;9.790;2023-06-26T08:04:43;100343.78;;;32.67;41.68
39891;BME280;25564;53.312;9.790;2023-06-26T08:07:15;100332.16;;;32.48;42.07
39891;BME280;25564;53.312;9.790;2023-06-26T08:09:46;100341.81;;;32.44;41.95
39891;BME280;25564;53.312;9.790;2023-06-26T08:12:18;100330.13;;;32.42;42.08
39891;BME280;25564;53.312;9.790;2023-06-26T08:14:50;100332.81;;;32.59;42.73
39891;BME280;25564;53.312;9.790;2023-06-26T08:17:21;100338.22;;;32.75;42.68
39891;BME280;25564;53.312;9.790;2023-06-26T08:19:53;100324.50;;;32.75;42.67
39891;BME280;25564;53.312;9.790;2023-06-26T08:22:24;100324.84;;;32.80;42.65
39891;BME280;25564;53.312;9.790;2023-06-26T08:24:56;100321.25;;;32.71;42.78
39891;BME280;25564;53.312;9.790;2023-06-26T08:27:27;100322.78;;;32.82;42.30
39891;BME280;25564;53.312;9.790;2023-06-26T08:30:01;100328.63;;;32.79;42.13
39891;BME280;25564;53.312;9.790;2023-06-26T08:32:37;100338.22;;;32.83;42.26
39891;BME280;25564;53.312;9.790;2023-06-26T08:35:09;100357.94;;;32.95;42.43
39891;BME280;25564;53.312;9.790;2023-06-26T08:37:41;100371.16;;;32.91;42.04
39891;BME280;25564;53.312;9.790;2023-06-26T08:40:16;100362.28;;;32.81;42.32
39891;BME280;25564;53.312;9.790;2023-06-26T08:42:50;100354.78;;;32.59;42.46
39891;BME280;25564;53.312;9.790;2023-06-26T08:45:24;100369.41;;;32.51;42.27
39891;BME280;25564;53.312;9.790;2023-06-26T08:47:59;100384.31;;;32.65;42.35
39891;BME280;25564;53.312;9.790;2023-06-26T08:50:34;100389.16;;;32.55;42.33
39891;BME280;25564;53.312;9.790;2023-06-26T08:55:57;100385.84;;;31.96;43.04
39891;BME280;25564;53.312;9.790;2023-06-26T08:58:29;100387.91;;;31.77;43.40
39891;BME280;25564;53.312;9.790;2023-06-26T09:01:01;100388.25;;;31.74;43.33
39891;BME280;25564;53.312;9.790;2023-06-26T09:03:33;100387.91;;;31.77;43.38
39891;BME280;25564;53.312;9.790;2023-06-26T09:06:04;100404.38;;;31.77;43.89
39891;BME280;25564;53.312;9.790;2023-06-26T09:08:36;100400.44;;;31.88;44.10
39891;BME280;25564;53.312;9.790;2023-06-26T09:11:07;100407.28;;;31.92;43.76
39891;BME280;25564;53.312;9.790;2023-06-26T09:13:39;100406.59;;;32.06;43.51
39891;BME280;25564;53.312;9.790;2023-06-26T09:16:11;100412.59;;;32.10;42.83
39891;BME280;25564;53.312;9.790;2023-06-26T09:18:45;100417.06;;;31.78;42.72
39891;BME280;25564;53.312;9.790;2023-06-26T09:21:17;100418.03;;;31.37;43.29
39891;BME280;25564;53.312;9.790;2023-06-26T09:23:49;100421.56;;;31.13;43.61
39891;BME280;25564;53.312;9.790;2023-06-26T09:26:21;100429.31;;;30.83;44.66
39891;BME280;25564;53.312;9.790;2023-06-26T09:28:53;100428.47;;;30.83;44.87
39891;BME280;25564;53.312;9.790;2023-06-26T09:31:25;100433.56;;;30.52;44.95
39891;BME280;25564;53.312;9.790;2023-06-26T09:34:12;100416.44;;;30.24;44.81
39891;BME280;25564;53.312;9.790;2023-06-26T09:36:44;100432.94;;;30.06;44.85
39891;BME280;25564;53.312;9.790;2023-06-26T09:39:18;100456.00;;;29.68;45.34
39891;BME280;25564;53.312;9.790;2023-06-26T09:41:49;100441.88;;;29.10;46.16
39891;BME280;25564;53.312;9.790;2023-06-26T09:44:21;100444.19;;;28.68;46.88
39891;BME280;25564;53.312;9.790;2023-06-26T09:46:54;100442.81;;;28.54;47.76
39891;BME280;25564;53.312;9.790;2023-06-26T09:49:26;100454.66;;;28.35;47.80
39891;BME280;25564;53.312;9.790;2023-06-26T09:51:59;100458.97;;;28.09;48.82
39891;BME280;25564;53.312;9.790;2023-06-26T09:54:35;100471.66;;;27.71;49.34
39891;BME280;25564;53.312;9.790;2023-06-26T09:57:08;100474.41;;;27.21;50.29
39891;BME280;25564;53.312;9.790;2023-06-26T09:59:41;100518.97;;;26.80;50.90
39891;BME280;25564;53.312;9.790;2023-06-26T10:02:13;100509.56;;;25.69;52.98
39891;BME280;25564;53.312;9.790;2023-06-26T10:04:45;100524.03;;;23.76;57.23
39891;BME280;25564;53.312;9.790;2023-06-26T10:07:17;100523.09;;;22.54;59.77
39891;BME280;25564;53.312;9.790;2023-06-26T10:09:51;100513.75;;;21.80;63.38
39891;BME280;25564;53.312;9.790;2023-06-26T10:12:28;100540.81;;;21.39;65.50
39891;BME280;25564;53.312;9.790;2023-06-26T10:15:02;100530.41;;;21.04;67.76
39891;BME280;25564;53.312;9.790;2023-06-26T10:17:37;100517.75;;;20.78;69.54
39891;BME280;25564;53.312;9.790;2023-06-26T10:20:10;100511.38;;;20.65;71.00
39891;BME280;25564;53.312;9.790;2023-06-26T10:22:45;100532.28;;;20.75;72.81
39891;BME280;25564;53.312;9.790;2023-06-26T10:25:18;100541.44;;;20.73;75.19
39891;BME280;25564;53.312;9.790;2023-06-26T10:27:57;100567.50;;;20.86;77.14
39891;BME280;25564;53.312;9.790;2023-06-26T10:30:33;100553.66;;;20.78;80.23
39891;BME280;25564;53.312;9.790;2023-06-26T10:33:06;100559.31;;;21.02;85.07
39891;BME280;25564;53.312;9.790;2023-06-26T10:35:43;100558.25;;;21.05;87.07
39891;BME280;25564;53.312;9.790;2023-06-26T10:38:15;100568.47;;;21.14;88.46
39891;BME280;25564;53.312;9.790;2023-06-26T10:40:47;100543.03;;;21.32;89.62
39891;BME280;25564;53.312;9.790;2023-06-26T10:43:29;100582.38;;;22.04;90.65
39891;BME280;25564;53.312;9.790;2023-06-26T10:46:01;100579.03;;;22.53;90.95
39891;BME280;25564;53.312;9.790;2023-06-26T10:48:56;100582.91;;;23.12;90.81
39891;BME280;25564;53.312;9.790;2023-06-26T10:51:28;100538.47;;;23.40;91.33
39891;BME280;25564;53.312;9.790;2023-06-26T10:54:00;100563.13;;;23.61;91.06
39891;BME280;25564;53.312;9.790;2023-06-26T10:56:53;100549.69;;;23.60;91.22
39891;BME280;25564;53.312;9.790;2023-06-26T10:59:29;100551.03;;;23.41;92.02
39891;BME280;25564;53.312;9.790;2023-06-26T11:02:03;100573.38;;;23.20;91.95
39891;BME280;25564;53.312;9.790;2023-06-26T11:04:47;100584.13;;;22.96;92.67
39891;BME280;25564;53.312;9.790;2023-06-26T11:07:23;100589.31;;;22.73;92.89
39891;BME280;25564;53.312;9.790;2023-06-26T11:10:00;100598.94;;;22.77;93.01
39891;BME280;25564;53.312;9.790;2023-06-26T11:12:38;100607.38;;;22.73;92.93
39891;BME280;25564;53.312;9.790;2023-06-26T11:15:13;100608.44;;;22.45;93.05
39891;BME280;25564;53.312;9.790;2023-06-26T11:17:45;100630.44;;;22.26;93.22
39891;BME280;25564;53.312;9.790;2023-06-26T11:20:16;100623.47;;;22.09;92.84
39891;BME280;25564;53.312;9.790;2023-06-26T11:22:52;100620.03;;;22.20;93.76
39891;BME280;25564;53.312;9.790;2023-06-26T11:25:23;100625.31;;;22.48;94.23
39891;BME280;25564;53.312;9.790;2023-06-26T11:27:55;100618.25;;;22.86;93.50
39891;BME280;25564;53.312;9.790;2023-06-26T11:30:27;100623.19;;;23.30;92.86
39891;BME280;25564;53.312;9.790;2023-06-26T11:33:09;100618.63;;;23.30;92.04
39891;BME280;25564;53.312;9.790;2023-06-26T11:35:41;100617.56;;;23.33;91.96
39891;BME280;25564;53.312;9.790;2023-06-26T11:38:12;100637.38;;;23.59;91.78
39891;BME280;25564;53.312;9.790;2023-06-26T11:40:44;100610.81;;;23.64;91.09
39891;BME280;25564;53.312;9.790;2023-06-26T11:43:15;100643.50;;;23.97;90.15
39891;BME280;25564;53.312;9.790;2023-06-26T11:45:49;100635.56;;;24.07;89.99
39891;BME280;25564;53.312;9.790;2023-06-26T11:48:20;100656.16;;;24.09;90.04
39891;BME280;25564;53.312;9.790;2023-06-26T11:50:54;100639.78;;;23.87;88.69
39891;BME280;25564;53.312;9.790;2023-06-26T11:53:25;100669.75;;;23.73;88.84
39891;BME280;25564;53.312;9.790;2023-06-26T11:55:57;100665.44;;;23.58;89.31
39891;BME280;25564;53.312;9.790;2023-06-26T11:58:28;100659.38;;;23.29;89.55
39891;BME280;25564;53.312;9.790;2023-06-26T12:00:59;100660.03;;;23.07;89.19
39891;BME280;25564;53.312;9.790;2023-06-26T12:03:31;100675.19;;;23.09;89.47
39891;BME280;25564;53.312;9.790;2023-06-26T12:06:04;100669.44;;;23.14;89.13
39891;BME280;25564;53.312;9.790;2023-06-26T12:08:37;100661.53;;;23.49;88.53
39891;BME280;25564;53.312;9.790;2023-06-26T12:11:10;100667.53;;;23.91;87.10
39891;BME280;25564;53.312;9.790;2023-06-26T12:13:42;100653.84;;;23.92;87.25
39891;BME280;25564;53.312;9.790;2023-06-26T12:16:14;100665.28;;;24.08;87.17
39891;BME280;25564;53.312;9.790;2023-06-26T12:18:46;100660.00;;;24.31;86.53
39891;BME280;25564;53.312;9.790;2023-06-26T12:24:10;100673.59;;;25.12;85.27
39891;BME280;25564;53.312;9.790;2023-06-26T12:26:45;100677.00;;;24.92;83.39
39891;BME280;25564;53.312;9.790;2023-06-26T12:29:17;100676.13;;;24.91;84.80
39891;BME280;25564;53.312;9.790;2023-06-26T12:31:51;100668.34;;;24.87;85.38
39891;BME280;25564;53.312;9.790;2023-06-26T12:34:34;100677.38;;;24.87;83.66
39891;BME280;25564;53.312;9.790;2023-06-26T12:37:08;100659.97;;;24.55;83.49
39891;BME280;25564;53.312;9.790;2023-06-26T12:39:53;100672.97;;;24.62;83.30
39891;BME280;25564;53.312;9.790;2023-06-26T12:42:30;100673.00;;;24.73;83.06
39891;BME280;25564;53.312;9.790;2023-06-26T12:45:11;100685.13;;;24.81;82.67
39891;BME280;25564;53.312;9.790;2023-06-26T12:48:07;100663.78;;;24.87;82.36
39891;BME280;25564;53.312;9.790;2023-06-26T12:50:45;100675.81;;;25.18;82.48
39891;BME280;25564;53.312;9.790;2023-06-26T12:53:17;100680.91;;;25.23;81.02
39891;BME280;25564;53.312;9.790;2023-06-26T12:55:48;100683.00;;;25.30;80.76
39891;BME280;25564;53.312;9.790;2023-06-26T12:58:19;100684.97;;;25.28;81.06
39891;BME280;25564;53.312;9.790;2023-06-26T13:00:51;100671.88;;;25.33;80.74
39891;BME280;25564;53.312;9.790;2023-06-26T13:03:25;100696.75;;;25.73;80.97
39891;BME280;25564;53.312;9.790;2023-06-26T13:05:57;100692.06;;;25.87;79.96
39891;BME280;25564;53.312;9.790;2023-06-26T13:08:28;100682.06;;;25.76;79.40
39891;BME280;25564;53.312;9.790;2023-06-26T13:11:00;100697.13;;;25.80;79.20
39891;BME280;25564;53.312;9.790;2023-06-26T13:13:31;100702.94;;;25.64;77.87
39891;BME280;25564;53.312;9.790;2023-06-26T13:16:04;100691.78;;;25.34;77.02
39891;BME280;25564;53.312;9.790;2023-06-26T13:18:36;100669.03;;;25.24;77.83
39891;BME280;25564;53.312;9.790;2023-06-26T13:21:07;100684.25;;;25.37;75.08
39891;BME280;25564;53.312;9.790;2023-06-26T13:23:39;100675.84;;;25.29;72.45
39891;BME280;25564;53.312;9.790;2023-06-26T13:26:10;100687.97;;;25.48;71.68
39891;BME280;25564;53.312;9.790;2023-06-26T13:28:58;100677.09;;;25.59;70.54